sensor_id;sensor_type;location;lat;lon;timestamp;P1;durP1;ratioP1;P2;durP2;ratioP2
58238;SDS011;44037;55.638;37.356;2023-07-20T00:02:30;3.20;;;1.45;;
58238;SDS011;44037;55.638;37.356;2023-07-20T00:04:57;3.60;;;1.50;;
58238;SDS011;44037;55.638;37.356;2023-07-20T00:07:25;2.90;;;1.40;;
58238;SDS011;44037;55.638;37.356;2023-07-20T00:09:52;2.75;;;1.67;;
58238;SDS011;44037;55.638;37.356;2023-07-20T00:12:19;4.45;;;1.38;;
58238;SDS011;44037;55.638;37.356;2023-07-20T00:14:47;1.63;;;1.35;;
58238;SDS011;44037;55.638;37.356;2023-07-20T00:17:16;5.43;;;1.33;;
58238;SDS011;44037;55.638;37.356;2023-07-20T00:19:43;2.33;;;1.38;;
58238;SDS011;44037;55.638;37.356;2023-07-20T00:22:14;2.45;;;1.38;;
58238;SDS011;44037;55.638;37.356;2023-07-20T00:24:42;2.10;;;1.30;;
58238;SDS011;44037;55.638;37.356;2023-07-20T00:27:09;2.47;;;1.35;;
58238;SDS011;44037;55.638;37.356;2023-07-20T00:29:36;3.30;;;1.48;;
58238;SDS011;44037;55.638;37.356;2023-07-20T00:32:05;5.40;;;1.65;;
58238;SDS011;44037;55.638;37.356;2023-07-20T00:34:34;2.63;;;1.33;;
58238;SDS011;44037;55.638;37.356;2023-07-20T00:37:01;4.05;;;1.80;;
58238;SDS011;44037;55.638;37.356;2023-07-20T00:39:28;2.58;;;1.60;;
58238;SDS011;44037;55.638;37.356;2023-07-20T00:41:56;2.35;;;1.40;;
58238;SDS011;44037;55.638;37.356;2023-07-20T00:44:24;3.08;;;1.50;;
58238;SDS011;44037;55.638;37.356;2023-07-20T00:46:51;3.78;;;1.73;;
58238;SDS011;44037;55.638;37.356;2023-07-20T00:49:19;2.28;;;1.30;;
58238;SDS011;44037;55.638;37.356;2023-07-20T00:51:49;3.35;;;1.65;;
58238;SDS011;44037;55.638;37.356;2023-07-20T00:54:17;3.97;;;1.63;;
58238;SDS011;44037;55.638;37.356;2023-07-20T00:56:45;5.45;;;1.58;;
58238;SDS011;44037;55.638;37.356;2023-07-20T00:59:13;3.15;;;1.65;;
58238;SDS011;44037;55.638;37.356;2023-07-20T01:01:43;4.45;;;1.50;;
58238;SDS011;44037;55.638;37.356;2023-07-20T01:04:10;2.28;;;1.45;;
58238;SDS011;44037;55.638;37.356;2023-07-20T01:06:41;3.10;;;1.75;;
58238;SDS011;44037;55.638;37.356;2023-07-20T01:09:18;4.53;;;1.15;;
58238;SDS011;44037;55.638;37.356;2023-07-20T01:11:52;4.95;;;1.45;;
58238;SDS011;44037;55.638;37.356;2023-07-20T01:14:26;3.58;;;1.10;;
58238;SDS011;44037;55.638;37.356;2023-07-20T01:16:54;4.00;;;1.25;;
58238;SDS011;44037;55.638;37.356;2023-07-20T01:19:22;4.22;;;1.20;;
58238;SDS011;44037;55.638;37.356;2023-07-20T01:21:51;2.45;;;1.40;;
58238;SDS011;44037;55.638;37.356;2023-07-20T01:24:45;2.53;;;1.30;;
58238;SDS011;44037;55.638;37.356;2023-07-20T01:30:39;3.25;;;1.30;;
58238;SDS011;44037;55.638;37.356;2023-07-20T01:33:19;4.45;;;1.33;;
58238;SDS011;44037;55.638;37.356;2023-07-20T01:35:50;2.92;;;1.30;;
58238;SDS011;44037;55.638;37.356;2023-07-20T01:38:20;3.35;;;1.27;;
58238;SDS011;44037;55.638;37.356;2023-07-20T01:40:48;3.60;;;1.10;;
58238;SDS011;44037;55.638;37.356;2023-07-20T01:43:16;2.63;;;1.33;;
58238;SDS011;44037;55.638;37.356;2023-07-20T01:45:43;2.50;;;1.05;;
58238;SDS011;44037;55.638;37.356;2023-07-20T01:48:10;2.50;;;1.20;;
58238;SDS011;44037;55.638;37.356;2023-07-20T01:50:39;2.80;;;1.17;;
58238;SDS011;44037;55.638;37.356;2023-07-20T01:53:06;1.85;;;1.17;;
58238;SDS011;44037;55.638;37.356;2023-07-20T01:55:33;3.95;;;1.45;;
58238;SDS011;44037;55.638;37.356;2023-07-20T01:58:00;2.08;;;1.27;;
58238;SDS011;44037;55.638;37.356;2023-07-20T02:00:28;3.85;;;1.33;;
58238;SDS011;44037;55.638;37.356;2023-07-20T02:02:56;1.58;;;1.20;;
58238;SDS011;44037;55.638;37.356;2023-07-20T02:05:23;4.00;;;1.20;;
58238;SDS011;44037;55.638;37.356;2023-07-20T02:07:52;2.13;;;1.20;;
58238;SDS011;44037;55.638;37.356;2023-07-20T02:10:19;2.63;;;1.40;;
58238;SDS011;44037;55.638;37.356;2023-07-20T02:12:47;3.92;;;1.80;;
58238;SDS011;44037;55.638;37.356;2023-07-20T02:15:14;2.08;;;1.77;;
58238;SDS011;44037;55.638;37.356;2023-07-20T02:17:42;4.80;;;1.58;;
58238;SDS011;44037;55.638;37.356;2023-07-20T02:20:29;5.47;;;1.60;;
58238;SDS011;44037;55.638;37.356;2023-07-20T02:22:58;5.20;;;1.70;;
58238;SDS011;44037;55.638;37.356;2023-07-20T02:25:25;4.38;;;1.73;;
58238;SDS011;44037;55.638;37.356;2023-07-20T02:27:52;2.92;;;1.33;;
58238;SDS011;44037;55.638;37.356;2023-07-20T02:30:19;3.22;;;1.40;;
58238;SDS011;44037;55.638;37.356;2023-07-20T02:32:46;5.57;;;1.75;;
58238;SDS011;44037;55.638;37.356;2023-07-20T02:35:14;3.08;;;1.42;;
58238;SDS011;44037;55.638;37.356;2023-07-20T02:37:41;1.98;;;1.15;;
58238;SDS011;44037;55.638;37.356;2023-07-20T02:40:11;2.42;;;1.45;;
58238;SDS011;44037;55.638;37.356;2023-07-20T02:42:38;2.60;;;1.20;;
58238;SDS011;44037;55.638;37.356;2023-07-20T02:45:06;2.80;;;1.40;;
58238;SDS011;44037;55.638;37.356;2023-07-20T02:47:35;4.70;;;1.50;;
58238;SDS011;44037;55.638;37.356;2023-07-20T02:50:02;4.05;;;1.40;;
58238;SDS011;44037;55.638;37.356;2023-07-20T02:52:31;4.10;;;1.55;;
58238;SDS011;44037;55.638;37.356;2023-07-20T02:54:58;3.95;;;1.58;;
58238;SDS011;44037;55.638;37.356;2023-07-20T02:57:27;4.68;;;1.30;;
58238;SDS011;44037;55.638;37.356;2023-07-20T02:59:54;2.17;;;1.35;;
58238;SDS011;44037;55.638;37.356;2023-07-20T03:02:21;3.42;;;1.38;;
58238;SDS011;44037;55.638;37.356;2023-07-20T03:04:48;3.28;;;1.10;;
58238;SDS011;44037;55.638;37.356;2023-07-20T03:07:16;1.73;;;0.88;;
58238;SDS011;44037;55.638;37.356;2023-07-20T03:09:43;3.00;;;1.10;;
58238;SDS011;44037;55.638;37.356;2023-07-20T03:12:10;2.85;;;1.33;;
58238;SDS011;44037;55.638;37.356;2023-07-20T03:14:39;1.73;;;1.10;;
58238;SDS011;44037;55.638;37.356;2023-07-20T03:17:06;4.55;;;1.55;;
58238;SDS011;44037;55.638;37.356;2023-07-20T03:19:33;1.65;;;0.93;;
58238;SDS011;44037;55.638;37.356;2023-07-20T03:22:00;3.55;;;1.00;;
58238;SDS011;44037;55.638;37.356;2023-07-20T03:24:27;6.20;;;1.10;;
58238;SDS011;44037;55.638;37.356;2023-07-20T03:26:54;2.50;;;1.10;;
58238;SDS011;44037;55.638;37.356;2023-07-20T03:29:22;3.47;;;1.20;;
58238;SDS011;44037;55.638;37.356;2023-07-20T03:31:50;1.83;;;0.82;;
58238;SDS011;44037;55.638;37.356;2023-07-20T03:34:17;1.33;;;0.80;;
58238;SDS011;44037;55.638;37.356;2023-07-20T03:36:44;3.70;;;1.00;;
58238;SDS011;44037;55.638;37.356;2023-07-20T03:39:12;2.83;;;0.98;;
58238;SDS011;44037;55.638;37.356;2023-07-20T03:41:39;1.35;;;0.80;;
58238;SDS011;44037;55.638;37.356;2023-07-20T03:44:06;2.65;;;0.90;;
58238;SDS011;44037;55.638;37.356;2023-07-20T03:46:33;2.20;;;1.10;;
58238;SDS011;44037;55.638;37.356;2023-07-20T03:49:04;3.03;;;1.15;;
58238;SDS011;44037;55.638;37.356;2023-07-20T03:51:31;1.58;;;0.80;;
58238;SDS011;44037;55.638;37.356;2023-07-20T03:53:59;5.78;;;1.20;;
58238;SDS011;44037;55.638;37.356;2023-07-20T03:56:26;4.10;;;0.90;;
58238;SDS011;44037;55.638;37.356;2023-07-20T03:58:53;1.95;;;0.90;;
58238;SDS011;44037;55.638;37.356;2023-07-20T04:01:20;3.83;;;0.90;;
58238;SDS011;44037;55.638;37.356;2023-07-20T04:03:48;4.28;;;0.65;;
58238;SDS011;44037;55.638;37.356;2023-07-20T04:06:17;3.35;;;1.00;;
58238;SDS011;44037;55.638;37.356;2023-07-20T04:08:47;2.95;;;0.90;;
58238;SDS011;44037;55.638;37.356;2023-07-20T04:11:14;4.30;;;1.02;;
58238;SDS011;44037;55.638;37.356;2023-07-20T04:13:42;3.60;;;1.33;;
58238;SDS011;44037;55.638;37.356;2023-07-20T04:16:09;4.07;;;0.95;;
58238;SDS011;44037;55.638;37.356;2023-07-20T04:18:36;5.82;;;1.20;;
58238;SDS011;44037;55.638;37.356;2023-07-20T04:21:03;3.60;;;0.90;;
58238;SDS011;44037;55.638;37.356;2023-07-20T04:23:32;2.85;;;1.55;;
58238;SDS011;44037;55.638;37.356;2023-07-20T04:25:59;3.40;;;1.15;;
58238;SDS011;44037;55.638;37.356;2023-07-20T04:28:26;2.80;;;1.10;;
58238;SDS011;44037;55.638;37.356;2023-07-20T04:30:53;2.38;;;1.00;;
58238;SDS011;44037;55.638;37.356;2023-07-20T04:33:20;4.30;;;1.65;;
58238;SDS011;44037;55.638;37.356;2023-07-20T04:35:48;2.75;;;1.00;;
58238;SDS011;44037;55.638;37.356;2023-07-20T04:38:17;1.67;;;1.30;;
58238;SDS011;44037;55.638;37.356;2023-07-20T04:40:46;2.22;;;1.05;;
58238;SDS011;44037;55.638;37.356;2023-07-20T04:43:15;2.78;;;0.90;;
58238;SDS011;44037;55.638;37.356;2023-07-20T04:45:45;4.43;;;0.90;;
58238;SDS011;44037;55.638;37.356;2023-07-20T04:48:15;2.92;;;1.00;;
58238;SDS011;44037;55.638;37.356;2023-07-20T04:50:44;1.60;;;0.90;;
58238;SDS011;44037;55.638;37.356;2023-07-20T04:53:12;2.10;;;0.90;;
58238;SDS011;44037;55.638;37.356;2023-07-20T04:55:40;3.45;;;1.23;;
58238;SDS011;44037;55.638;37.356;2023-07-20T04:58:17;2.20;;;0.90;;
58238;SDS011;44037;55.638;37.356;2023-07-20T05:00:44;3.17;;;1.15;;
58238;SDS011;44037;55.638;37.356;2023-07-20T05:03:12;5.00;;;2.25;;
58238;SDS011;44037;55.638;37.356;2023-07-20T05:05:39;3.03;;;1.88;;
58238;SDS011;44037;55.638;37.356;2023-07-20T05:08:06;1.30;;;0.90;;
58238;SDS011;44037;55.638;37.356;2023-07-20T05:10:33;1.80;;;1.10;;
58238;SDS011;44037;55.638;37.356;2023-07-20T05:13:01;1.45;;;0.90;;
58238;SDS011;44037;55.638;37.356;2023-07-20T05:15:29;2.15;;;0.70;;
58238;SDS011;44037;55.638;37.356;2023-07-20T05:17:59;5.20;;;0.95;;
58238;SDS011;44037;55.638;37.356;2023-07-20T05:20:26;2.30;;;0.70;;
58238;SDS011;44037;55.638;37.356;2023-07-20T05:22:53;4.28;;;1.00;;
58238;SDS011;44037;55.638;37.356;2023-07-20T05:25:21;3.28;;;1.00;;
58238;SDS011;44037;55.638;37.356;2023-07-20T05:27:48;3.50;;;0.90;;
58238;SDS011;44037;55.638;37.356;2023-07-20T05:30:16;2.13;;;0.80;;
58238;SDS011;44037;55.638;37.356;2023-07-20T05:32:45;3.38;;;0.98;;
58238;SDS011;44037;55.638;37.356;2023-07-20T05:35:16;2.75;;;0.98;;
58238;SDS011;44037;55.638;37.356;2023-07-20T05:37:44;1.75;;;0.90;;
58238;SDS011;44037;55.638;37.356;2023-07-20T05:40:12;2.90;;;0.95;;
58238;SDS011;44037;55.638;37.356;2023-07-20T05:42:40;2.38;;;0.80;;
58238;SDS011;44037;55.638;37.356;2023-07-20T05:45:07;1.50;;;0.77;;
58238;SDS011;44037;55.638;37.356;2023-07-20T05:47:35;2.60;;;0.85;;
58238;SDS011;44037;55.638;37.356;2023-07-20T05:50:04;1.65;;;0.68;;
58238;SDS011;44037;55.638;37.356;2023-07-20T05:52:32;2.22;;;0.77;;
58238;SDS011;44037;55.638;37.356;2023-07-20T05:54:59;1.83;;;0.80;;
58238;SDS011;44037;55.638;37.356;2023-07-20T05:57:26;2.58;;;0.77;;
58238;SDS011;44037;55.638;37.356;2023-07-20T05:59:53;1.10;;;0.50;;
58238;SDS011;44037;55.638;37.356;2023-07-20T06:02:20;4.18;;;0.90;;
58238;SDS011;44037;55.638;37.356;2023-07-20T06:04:48;2.08;;;1.10;;
58238;SDS011;44037;55.638;37.356;2023-07-20T06:07:16;2.42;;;0.65;;
58238;SDS011;44037;55.638;37.356;2023-07-20T06:09:43;5.18;;;0.90;;
58238;SDS011;44037;55.638;37.356;2023-07-20T06:12:11;5.20;;;0.90;;
58238;SDS011;44037;55.638;37.356;2023-07-20T06:14:38;2.00;;;0.80;;
58238;SDS011;44037;55.638;37.356;2023-07-20T06:17:05;3.22;;;0.82;;
58238;SDS011;44037;55.638;37.356;2023-07-20T06:19:32;3.75;;;0.90;;
58238;SDS011;44037;55.638;37.356;2023-07-20T06:22:00;4.35;;;1.00;;
58238;SDS011;44037;55.638;37.356;2023-07-20T06:24:28;4.57;;;1.13;;
58238;SDS011;44037;55.638;37.356;2023-07-20T06:26:55;3.53;;;0.80;;
58238;SDS011;44037;55.638;37.356;2023-07-20T06:29:22;2.28;;;0.95;;
58238;SDS011;44037;55.638;37.356;2023-07-20T06:31:50;1.23;;;0.82;;
58238;SDS011;44037;55.638;37.356;2023-07-20T06:34:17;2.65;;;0.95;;
58238;SDS011;44037;55.638;37.356;2023-07-20T06:36:45;2.13;;;0.95;;
58238;SDS011;44037;55.638;37.356;2023-07-20T06:39:12;2.13;;;0.80;;
58238;SDS011;44037;55.638;37.356;2023-07-20T06:41:41;1.85;;;0.80;;
58238;SDS011;44037;55.638;37.356;2023-07-20T06:44:08;3.15;;;1.15;;
58238;SDS011;44037;55.638;37.356;2023-07-20T06:46:35;0.68;;;0.52;;
58238;SDS011;44037;55.638;37.356;2023-07-20T06:49:05;1.55;;;0.63;;
58238;SDS011;44037;55.638;37.356;2023-07-20T06:51:33;3.22;;;0.85;;
58238;SDS011;44037;55.638;37.356;2023-07-20T06:54:01;2.60;;;0.82;;
58238;SDS011;44037;55.638;37.356;2023-07-20T06:56:30;1.05;;;0.60;;
58238;SDS011;44037;55.638;37.356;2023-07-20T06:58:58;1.65;;;0.73;;
58238;SDS011;44037;55.638;37.356;2023-07-20T07:01:25;4.05;;;1.00;;
58238;SDS011;44037;55.638;37.356;2023-07-20T07:03:52;5.75;;;0.90;;
58238;SDS011;44037;55.638;37.356;2023-07-20T07:06:20;4.28;;;0.93;;
58238;SDS011;44037;55.638;37.356;2023-07-20T07:08:47;3.83;;;0.80;;
58238;SDS011;44037;55.638;37.356;2023-07-20T07:11:15;1.88;;;0.70;;
58238;SDS011;44037;55.638;37.356;2023-07-20T07:13:42;3.60;;;0.80;;
58238;SDS011;44037;55.638;37.356;2023-07-20T07:16:13;1.73;;;0.80;;
58238;SDS011;44037;55.638;37.356;2023-07-20T07:18:44;3.28;;;1.52;;
58238;SDS011;44037;55.638;37.356;2023-07-20T07:21:12;2.78;;;1.13;;
58238;SDS011;44037;55.638;37.356;2023-07-20T07:23:39;2.95;;;1.02;;
58238;SDS011;44037;55.638;37.356;2023-07-20T07:26:06;1.63;;;0.70;;
58238;SDS011;44037;55.638;37.356;2023-07-20T07:28:34;2.28;;;0.70;;
58238;SDS011;44037;55.638;37.356;2023-07-20T07:31:02;2.38;;;0.70;;
58238;SDS011;44037;55.638;37.356;2023-07-20T07:33:32;2.53;;;0.80;;
58238;SDS011;44037;55.638;37.356;2023-07-20T07:35:59;4.32;;;1.25;;
58238;SDS011;44037;55.638;37.356;2023-07-20T07:38:27;4.40;;;1.10;;
58238;SDS011;44037;55.638;37.356;2023-07-20T07:40:54;3.65;;;0.93;;
58238;SDS011;44037;55.638;37.356;2023-07-20T07:43:21;1.55;;;0.80;;
58238;SDS011;44037;55.638;37.356;2023-07-20T07:45:49;3.20;;;0.85;;
58238;SDS011;44037;55.638;37.356;2023-07-20T07:48:16;1.70;;;0.63;;
58238;SDS011;44037;55.638;37.356;2023-07-20T07:50:47;3.03;;;0.90;;
58238;SDS011;44037;55.638;37.356;2023-07-20T07:53:15;2.22;;;0.98;;
58238;SDS011;44037;55.638;37.356;2023-07-20T07:55:43;4.20;;;1.00;;
58238;SDS011;44037;55.638;37.356;2023-07-20T07:58:11;2.72;;;0.88;;
58238;SDS011;44037;55.638;37.356;2023-07-20T08:00:38;2.72;;;0.65;;
58238;SDS011;44037;55.638;37.356;2023-07-20T08:03:06;3.17;;;0.98;;
58238;SDS011;44037;55.638;37.356;2023-07-20T08:05:33;4.72;;;0.70;;
58238;SDS011;44037;55.638;37.356;2023-07-20T08:08:02;5.90;;;0.90;;
58238;SDS011;44037;55.638;37.356;2023-07-20T08:10:30;2.38;;;0.93;;
58238;SDS011;44037;55.638;37.356;2023-07-20T08:12:58;3.75;;;1.48;;
58238;SDS011;44037;55.638;37.356;2023-07-20T08:15:25;2.88;;;1.10;;
58238;SDS011;44037;55.638;37.356;2023-07-20T08:17:52;1.98;;;0.77;;
58238;SDS011;44037;55.638;37.356;2023-07-20T08:20:20;1.88;;;0.98;;
58238;SDS011;44037;55.638;37.356;2023-07-20T08:22:51;4.25;;;1.00;;
58238;SDS011;44037;55.638;37.356;2023-07-20T08:25:21;3.65;;;1.13;;
58238;SDS011;44037;55.638;37.356;2023-07-20T08:27:48;3.53;;;0.80;;
58238;SDS011;44037;55.638;37.356;2023-07-20T08:30:15;2.05;;;0.80;;
58238;SDS011;44037;55.638;37.356;2023-07-20T08:32:43;6.47;;;0.90;;
58238;SDS011;44037;55.638;37.356;2023-07-20T08:35:10;2.40;;;0.68;;
58238;SDS011;44037;55.638;37.356;2023-07-20T08:37:37;1.83;;;0.77;;
58238;SDS011;44037;55.638;37.356;2023-07-20T08:40:05;4.22;;;0.70;;
58238;SDS011;44037;55.638;37.356;2023-07-20T08:42:36;3.30;;;0.88;;
58238;SDS011;44037;55.638;37.356;2023-07-20T08:45:06;1.45;;;1.00;;
58238;SDS011;44037;55.638;37.356;2023-07-20T08:47:35;3.08;;;0.77;;
58238;SDS011;44037;55.638;37.356;2023-07-20T08:50:02;5.65;;;1.60;;
58238;SDS011;44037;55.638;37.356;2023-07-20T08:52:34;1.65;;;0.98;;
58238;SDS011;44037;55.638;37.356;2023-07-20T08:55:01;4.97;;;0.80;;
58238;SDS011;44037;55.638;37.356;2023-07-20T08:57:30;1.92;;;1.10;;
58238;SDS011;44037;55.638;37.356;2023-07-20T09:00:02;1.52;;;1.02;;
58238;SDS011;44037;55.638;37.356;2023-07-20T09:02:35;1.75;;;0.98;;
58238;SDS011;44037;55.638;37.356;2023-07-20T09:05:06;3.78;;;1.10;;
58238;SDS011;44037;55.638;37.356;2023-07-20T09:07:35;3.13;;;1.10;;
58238;SDS011;44037;55.638;37.356;2023-07-20T09:10:03;4.22;;;1.40;;
58238;SDS011;44037;55.638;37.356;2023-07-20T09:12:31;4.05;;;1.20;;
58238;SDS011;44037;55.638;37.356;2023-07-20T09:14:59;3.85;;;1.27;;
58238;SDS011;44037;55.638;37.356;2023-07-20T09:17:31;2.97;;;1.25;;
58238;SDS011;44037;55.638;37.356;2023-07-20T09:19:58;4.38;;;2.15;;
58238;SDS011;44037;55.638;37.356;2023-07-20T09:22:29;2.40;;;1.00;;
58238;SDS011;44037;55.638;37.356;2023-07-20T09:24:57;2.42;;;1.10;;
58238;SDS011;44037;55.638;37.356;2023-07-20T09:27:29;2.35;;;1.00;;
58238;SDS011;44037;55.638;37.356;2023-07-20T09:30:02;4.18;;;1.70;;
58238;SDS011;44037;55.638;37.356;2023-07-20T09:32:37;4.30;;;1.30;;
58238;SDS011;44037;55.638;37.356;2023-07-20T09:35:06;4.05;;;0.98;;
58238;SDS011;44037;55.638;37.356;2023-07-20T09:37:39;2.67;;;1.00;;
58238;SDS011;44037;55.638;37.356;2023-07-20T09:40:06;1.92;;;1.20;;
58238;SDS011;44037;55.638;37.356;2023-07-20T09:42:35;3.60;;;1.30;;
58238;SDS011;44037;55.638;37.356;2023-07-20T09:45:03;4.28;;;1.17;;
58238;SDS011;44037;55.638;37.356;2023-07-20T09:47:36;1.70;;;1.30;;
58238;SDS011;44037;55.638;37.356;2023-07-20T09:50:05;2.70;;;0.80;;
58238;SDS011;44037;55.638;37.356;2023-07-20T09:52:37;3.25;;;1.15;;
58238;SDS011;44037;55.638;37.356;2023-07-20T09:55:06;2.55;;;1.00;;
58238;SDS011;44037;55.638;37.356;2023-07-20T09:57:35;2.03;;;1.05;;
58238;SDS011;44037;55.638;37.356;2023-07-20T10:00:03;4.40;;;2.05;;
58238;SDS011;44037;55.638;37.356;2023-07-20T10:02:34;1.70;;;1.35;;
58238;SDS011;44037;55.638;37.356;2023-07-20T10:05:09;2.70;;;1.17;;
58238;SDS011;44037;55.638;37.356;2023-07-20T10:07:40;3.03;;;1.67;;
58238;SDS011;44037;55.638;37.356;2023-07-20T10:10:11;4.35;;;1.38;;
58238;SDS011;44037;55.638;37.356;2023-07-20T10:12:41;5.15;;;1.50;;
58238;SDS011;44037;55.638;37.356;2023-07-20T10:15:11;4.90;;;1.70;;
58238;SDS011;44037;55.638;37.356;2023-07-20T10:17:44;6.47;;;2.30;;
58238;SDS011;44037;55.638;37.356;2023-07-20T10:20:16;3.92;;;1.75;;
58238;SDS011;44037;55.638;37.356;2023-07-20T10:22:47;3.15;;;1.73;;
58238;SDS011;44037;55.638;37.356;2023-07-20T10:25:16;2.90;;;1.38;;
58238;SDS011;44037;55.638;37.356;2023-07-20T10:27:45;2.55;;;1.30;;
58238;SDS011;44037;55.638;37.356;2023-07-20T10:30:13;4.25;;;1.38;;
58238;SDS011;44037;55.638;37.356;2023-07-20T10:32:42;2.30;;;1.20;;
58238;SDS011;44037;55.638;37.356;2023-07-20T10:35:14;2.03;;;1.45;;
58238;SDS011;44037;55.638;37.356;2023-07-20T10:37:49;4.35;;;1.23;;
58238;SDS011;44037;55.638;37.356;2023-07-20T10:40:31;18.05;;;1.73;;
58238;SDS011;44037;55.638;37.356;2023-07-20T10:43:00;6.53;;;1.52;;
58238;SDS011;44037;55.638;37.356;2023-07-20T10:45:41;3.22;;;1.60;;
58238;SDS011;44037;55.638;37.356;2023-07-20T10:48:19;2.85;;;1.23;;
58238;SDS011;44037;55.638;37.356;2023-07-20T10:53:38;4.30;;;1.60;;
58238;SDS011;44037;55.638;37.356;2023-07-20T10:56:06;4.95;;;1.45;;
58238;SDS011;44037;55.638;37.356;2023-07-20T10:58:34;2.83;;;1.30;;
58238;SDS011;44037;55.638;37.356;2023-07-20T11:01:02;3.17;;;1.25;;
58238;SDS011;44037;55.638;37.356;2023-07-20T11:03:33;3.20;;;1.23;;
58238;SDS011;44037;55.638;37.356;2023-07-20T11:09:04;6.95;;;1.30;;
58238;SDS011;44037;55.638;37.356;2023-07-20T11:11:34;3.25;;;1.23;;
58238;SDS011;44037;55.638;37.356;2023-07-20T11:14:02;5.40;;;1.38;;
58238;SDS011;44037;55.638;37.356;2023-07-20T11:16:33;4.30;;;1.30;;
58238;SDS011;44037;55.638;37.356;2023-07-20T11:19:03;2.53;;;1.25;;
58238;SDS011;44037;55.638;37.356;2023-07-20T11:21:35;6.45;;;1.27;;
58238;SDS011;44037;55.638;37.356;2023-07-20T11:24:04;3.45;;;1.20;;
58238;SDS011;44037;55.638;37.356;2023-07-20T11:26:42;1.92;;;1.23;;
58238;SDS011;44037;55.638;37.356;2023-07-20T11:29:10;3.53;;;1.60;;
58238;SDS011;44037;55.638;37.356;2023-07-20T11:31:38;5.78;;;1.05;;
58238;SDS011;44037;55.638;37.356;2023-07-20T11:34:10;1.95;;;1.10;;
58238;SDS011;44037;55.638;37.356;2023-07-20T11:36:38;2.10;;;1.35;;
58238;SDS011;44037;55.638;37.356;2023-07-20T11:39:07;2.22;;;1.13;;
58238;SDS011;44037;55.638;37.356;2023-07-20T11:41:36;2.78;;;1.55;;
58238;SDS011;44037;55.638;37.356;2023-07-20T11:44:05;4.00;;;1.40;;
58238;SDS011;44037;55.638;37.356;2023-07-20T11:46:33;3.53;;;1.20;;
58238;SDS011;44037;55.638;37.356;2023-07-20T11:49:01;3.85;;;1.40;;
58238;SDS011;44037;55.638;37.356;2023-07-20T11:51:30;2.05;;;1.20;;
58238;SDS011;44037;55.638;37.356;2023-07-20T11:53:58;4.35;;;1.83;;
58238;SDS011;44037;55.638;37.356;2023-07-20T11:56:27;6.78;;;1.60;;
58238;SDS011;44037;55.638;37.356;2023-07-20T11:58:56;5.20;;;1.45;;
58238;SDS011;44037;55.638;37.356;2023-07-20T12:01:27;3.88;;;1.20;;
58238;SDS011;44037;55.638;37.356;2023-07-20T12:03:57;2.78;;;1.40;;
58238;SDS011;44037;55.638;37.356;2023-07-20T12:06:27;4.72;;;1.15;;
58238;SDS011;44037;55.638;37.356;2023-07-20T12:08:57;2.92;;;1.20;;
58238;SDS011;44037;55.638;37.356;2023-07-20T12:11:32;3.15;;;1.50;;
58238;SDS011;44037;55.638;37.356;2023-07-20T12:14:00;2.70;;;1.33;;
58238;SDS011;44037;55.638;37.356;2023-07-20T12:16:29;4.85;;;1.63;;
58238;SDS011;44037;55.638;37.356;2023-07-20T12:19:00;4.57;;;1.48;;
58238;SDS011;44037;55.638;37.356;2023-07-20T12:21:28;4.85;;;1.60;;
58238;SDS011;44037;55.638;37.356;2023-07-20T12:23:57;4.18;;;1.20;;
58238;SDS011;44037;55.638;37.356;2023-07-20T12:26:25;3.22;;;1.30;;
58238;SDS011;44037;55.638;37.356;2023-07-20T12:28:53;1.85;;;1.33;;
58238;SDS011;44037;55.638;37.356;2023-07-20T12:31:20;3.33;;;1.33;;
58238;SDS011;44037;55.638;37.356;2023-07-20T12:33:49;2.17;;;1.55;;
58238;SDS011;44037;55.638;37.356;2023-07-20T12:36:17;4.35;;;1.77;;
58238;SDS011;44037;55.638;37.356;2023-07-20T12:38:45;7.65;;;3.53;;
58238;SDS011;44037;55.638;37.356;2023-07-20T12:41:13;2.47;;;1.33;;
58238;SDS011;44037;55.638;37.356;2023-07-20T12:43:41;3.47;;;1.75;;
58238;SDS011;44037;55.638;37.356;2023-07-20T12:46:09;5.90;;;2.30;;
58238;SDS011;44037;55.638;37.356;2023-07-20T12:48:37;7.07;;;3.03;;
58238;SDS011;44037;55.638;37.356;2023-07-20T12:51:06;4.25;;;1.90;;
58238;SDS011;44037;55.638;37.356;2023-07-20T12:53:34;7.00;;;1.45;;
58238;SDS011;44037;55.638;37.356;2023-07-20T12:56:01;3.40;;;1.27;;
58238;SDS011;44037;55.638;37.356;2023-07-20T12:58:30;3.42;;;1.50;;
58238;SDS011;44037;55.638;37.356;2023-07-20T13:00:58;3.50;;;1.33;;
58238;SDS011;44037;55.638;37.356;2023-07-20T13:03:25;2.38;;;1.65;;
58238;SDS011;44037;55.638;37.356;2023-07-20T13:05:52;2.80;;;2.03;;
58238;SDS011;44037;55.638;37.356;2023-07-20T13:08:19;2.78;;;1.27;;
58238;SDS011;44037;55.638;37.356;2023-07-20T13:10:50;3.47;;;1.58;;
58238;SDS011;44037;55.638;37.356;2023-07-20T13:13:18;4.35;;;1.60;;
58238;SDS011;44037;55.638;37.356;2023-07-20T13:15:46;4.15;;;2.10;;
58238;SDS011;44037;55.638;37.356;2023-07-20T13:18:14;5.03;;;2.47;;
58238;SDS011;44037;55.638;37.356;2023-07-20T13:20:41;3.38;;;2.35;;
58238;SDS011;44037;55.638;37.356;2023-07-20T13:23:08;6.05;;;1.60;;
58238;SDS011;44037;55.638;37.356;2023-07-20T13:25:35;3.72;;;1.50;;
58238;SDS011;44037;55.638;37.356;2023-07-20T13:28:03;3.60;;;1.88;;
58238;SDS011;44037;55.638;37.356;2023-07-20T13:30:31;5.18;;;2.08;;
58238;SDS011;44037;55.638;37.356;2023-07-20T13:33:00;7.00;;;2.03;;
58238;SDS011;44037;55.638;37.356;2023-07-20T13:35:27;4.63;;;2.13;;
58238;SDS011;44037;55.638;37.356;2023-07-20T13:37:54;4.43;;;2.10;;
58238;SDS011;44037;55.638;37.356;2023-07-20T13:40:21;5.47;;;2.13;;
58238;SDS011;44037;55.638;37.356;2023-07-20T13:42:48;3.15;;;2.10;;
58238;SDS011;44037;55.638;37.356;2023-07-20T13:45:15;4.93;;;2.17;;
58238;SDS011;44037;55.638;37.356;2023-07-20T13:47:43;4.55;;;1.30;;
58238;SDS011;44037;55.638;37.356;2023-07-20T13:50:11;4.25;;;1.30;;
58238;SDS011;44037;55.638;37.356;2023-07-20T13:52:38;1.98;;;1.08;;
58238;SDS011;44037;55.638;37.356;2023-07-20T13:55:06;2.60;;;1.20;;
58238;SDS011;44037;55.638;37.356;2023-07-20T13:57:33;3.15;;;1.17;;
58238;SDS011;44037;55.638;37.356;2023-07-20T14:00:01;2.83;;;1.55;;
58238;SDS011;44037;55.638;37.356;2023-07-20T14:02:33;4.80;;;1.60;;
58238;SDS011;44037;55.638;37.356;2023-07-20T14:05:00;3.40;;;1.20;;
58238;SDS011;44037;55.638;37.356;2023-07-20T14:07:30;2.83;;;1.67;;
58238;SDS011;44037;55.638;37.356;2023-07-20T14:09:58;3.92;;;1.02;;
58238;SDS011;44037;55.638;37.356;2023-07-20T14:12:25;5.22;;;1.40;;
58238;SDS011;44037;55.638;37.356;2023-07-20T14:14:54;4.45;;;1.58;;
58238;SDS011;44037;55.638;37.356;2023-07-20T14:17:21;4.65;;;1.38;;
58238;SDS011;44037;55.638;37.356;2023-07-20T14:19:48;2.58;;;1.05;;
58238;SDS011;44037;55.638;37.356;2023-07-20T14:22:16;2.90;;;1.10;;
58238;SDS011;44037;55.638;37.356;2023-07-20T14:24:45;4.32;;;1.38;;
58238;SDS011;44037;55.638;37.356;2023-07-20T14:27:12;2.78;;;1.42;;
58238;SDS011;44037;55.638;37.356;2023-07-20T14:29:39;6.13;;;1.95;;
58238;SDS011;44037;55.638;37.356;2023-07-20T14:32:06;3.22;;;1.13;;
58238;SDS011;44037;55.638;37.356;2023-07-20T14:34:34;3.60;;;1.55;;
58238;SDS011;44037;55.638;37.356;2023-07-20T14:37:02;2.78;;;1.30;;
58238;SDS011;44037;55.638;37.356;2023-07-20T14:39:30;3.00;;;1.27;;
58238;SDS011;44037;55.638;37.356;2023-07-20T14:41:58;2.40;;;1.52;;
58238;SDS011;44037;55.638;37.356;2023-07-20T14:44:26;4.88;;;2.22;;
58238;SDS011;44037;55.638;37.356;2023-07-20T14:46:53;1.75;;;1.20;;
58238;SDS011;44037;55.638;37.356;2023-07-20T14:49:20;3.65;;;1.40;;
58238;SDS011;44037;55.638;37.356;2023-07-20T14:51:47;4.57;;;1.20;;